Time;durP1;ratioP1;P1;durP2;ratioP2;P2;SDS_P1;SDS_P2;PMS_P1;PMS_P2;Temp;Humidity;BMP_temperature;BMP_pressure;BME280_temperature;BME280_humidity;BME280_pressure;Samples;Min_cycle;Max_cycle;Signal;HPM_P1;HPM_P2
2023/08/29 00:00:26;;;;;;;;;3.00;3.00;;;;;;;;5070361;28;45724;-66
2023/08/29 00:02:53;;;;;;;;;2.33;2.33;;;;;;;;5071460;27;47052;-67
2023/08/29 00:05:18;;;;;;;;;3.00;3.00;;;;;;;;5071560;28;47174;-67
2023/08/29 00:07:44;;;;;;;;;6.33;1.67;;;;;;;;5056831;28;46702;-66
2023/08/29 00:10:09;;;;;;;;;2.33;2.33;;;;;;;;5070662;28;45736;-66
2023/08/29 00:12:35;;;;;;;;;3.67;3.00;;;;;;;;5067727;27;46040;-67
2023/08/29 00:15:00;;;;;;;;;3.00;3.00;;;;;;;;5071055;27;46408;-66
2023/08/29 00:17:26;;;;;;;;;3.00;3.00;;;;;;;;5067862;27;45720;-66
2023/08/29 00:19:52;;;;;;;;;3.00;1.67;;;;;;;;5062262;28;45749;-67
2023/08/29 00:22:17;;;;;;;;;4.00;4.00;;;;;;;;5069916;27;46609;-67
2023/08/29 00:24:45;;;;;;;;;3.00;3.00;;;;;;;;5067173;27;46094;-66
2023/08/29 00:27:10;;;;;;;;;4.00;3.00;;;;;;;;5068926;27;46183;-65
2023/08/29 00:29:36;;;;;;;;;4.33;2.00;;;;;;;;5059818;28;45750;-66
2023/08/29 00:32:01;;;;;;;;;4.00;4.00;;;;;;;;5060052;28;45447;-66
2023/08/29 00:34:26;;;;;;;;;4.67;3.00;;;;;;;;5071653;28;45826;-66
2023/08/29 00:36:52;;;;;;;;;5.67;3.67;;;;;;;;5042399;28;45859;-66
2023/08/29 00:39:17;;;;;;;;;4.00;3.00;;;;;;;;5069441;27;45856;-66
2023/08/29 00:41:45;;;;;;;;;3.67;3.67;;;;;;;;5046073;28;46235;-65
2023/08/29 00:44:10;;;;;;;;;2.67;2.67;;;;;;;;5052160;28;47769;-65
2023/08/29 00:46:35;;;;;;;;;4.33;3.00;;;;;;;;5056328;27;45750;-65
2023/08/29 00:49:00;;;;;;;;;2.33;2.33;;;;;;;;5076719;27;45611;-66
2023/08/29 00:51:26;;;;;;;;;3.33;2.00;;;;;;;;5070610;28;45325;-67
2023/08/29 00:53:51;;;;;;;;;3.00;3.00;;;;;;;;5066312;28;46367;-65
2023/08/29 00:56:18;;;;;;;;;4.00;2.67;;;;;;;;5067293;27;45635;-66
2023/08/29 00:58:52;;;;;;;;;3.67;2.00;;;;;;;;5113675;27;1369125;-65
2023/08/29 01:01:18;;;;;;;;;2.33;2.33;;;;;;;;5128360;27;45687;-66
2023/08/29 01:03:43;;;;;;;;;3.33;3.33;;;;;;;;5140453;27;45524;-65
2023/08/29 01:06:09;;;;;;;;;4.00;3.00;;;;;;;;5127516;27;45883;-66
2023/08/29 01:08:34;;;;;;;;;4.00;4.00;;;;;;;;5128663;27;48205;-65
2023/08/29 01:11:09;;;;;;;;;3.67;3.67;;;;;;;;5142588;27;45684;-66
2023/08/29 01:13:46;;;;;;;;;4.67;3.67;;;;;;;;5144628;27;45627;-67
2023/08/29 01:16:12;;;;;;;;;3.00;3.00;;;;;;;;5137584;27;45472;-66
2023/08/29 01:18:38;;;;;;;;;3.00;3.00;;;;;;;;5139121;27;46418;-66
2023/08/29 01:21:29;;;;;;;;;3.00;3.00;;;;;;;;5136289;27;45488;-67
2023/08/29 01:24:04;;;;;;;;;4.67;4.67;;;;;;;;5132439;27;45620;-65
2023/08/29 01:26:30;;;;;;;;;5.00;0.33;;;;;;;;5140160;27;45703;-65
2023/08/29 01:28:57;;;;;;;;;5.33;4.00;;;;;;;;5140117;27;45391;-66
2023/08/29 01:31:23;;;;;;;;;5.33;4.00;;;;;;;;5134071;27;45526;-66
2023/08/29 01:33:48;;;;;;;;;5.67;4.00;;;;;;;;5141961;27;45738;-66
2023/08/29 01:36:14;;;;;;;;;3.33;3.33;;;;;;;;5136787;27;45454;-66
2023/08/29 01:38:39;;;;;;;;;4.00;3.00;;;;;;;;5137245;27;46601;-66
2023/08/29 01:41:04;;;;;;;;;3.00;3.00;;;;;;;;5139174;27;45521;-65
2023/08/29 01:43:30;;;;;;;;;4.00;3.33;;;;;;;;5143394;27;45840;-66
2023/08/29 01:45:55;;;;;;;;;3.33;3.33;;;;;;;;5146948;27;45810;-66
2023/08/29 01:48:21;;;;;;;;;3.00;3.00;;;;;;;;5141304;27;45278;-66
2023/08/29 01:50:47;;;;;;;;;7.00;5.67;;;;;;;;5145750;27;45716;-66
2023/08/29 01:53:13;;;;;;;;;4.00;4.00;;;;;;;;5143332;27;45600;-66
2023/08/29 01:55:38;;;;;;;;;4.67;4.67;;;;;;;;5115995;27;45756;-65
2023/08/29 01:58:04;;;;;;;;;5.67;4.33;;;;;;;;5130856;27;46869;-65
2023/08/29 02:00:30;;;;;;;;;5.00;5.00;;;;;;;;5140363;27;45451;-66
2023/08/29 02:02:55;;;;;;;;;5.67;4.33;;;;;;;;5142738;27;45708;-66
2023/08/29 02:05:21;;;;;;;;;5.33;5.33;;;;;;;;5142676;27;45598;-66
2023/08/29 02:07:46;;;;;;;;;5.67;5.67;;;;;;;;5148534;27;46957;-65
2023/08/29 02:10:11;;;;;;;;;4.00;4.00;;;;;;;;5116335;27;45844;-65
2023/08/29 02:12:36;;;;;;;;;5.67;5.33;;;;;;;;5120730;27;45623;-64
2023/08/29 02:15:02;;;;;;;;;6.00;6.00;;;;;;;;5121163;27;46021;-65
2023/08/29 02:17:28;;;;;;;;;5.00;4.67;;;;;;;;5128222;27;45579;-66
2023/08/29 02:19:53;;;;;;;;;4.33;4.33;;;;;;;;5127309;27;45795;-66
2023/08/29 02:22:18;;;;;;;;;4.67;3.33;;;;;;;;5130782;27;45501;-65
2023/08/29 02:24:47;;;;;;;;;4.67;4.67;;;;;;;;5126418;27;45829;-65
2023/08/29 02:27:12;;;;;;;;;5.00;3.00;;;;;;;;5104050;27;47131;-65
2023/08/29 02:29:37;;;;;;;;;5.00;5.00;;;;;;;;5124371;27;45466;-66
2023/08/29 02:32:03;;;;;;;;;5.33;5.33;;;;;;;;5125827;27;46077;-65
2023/08/29 02:34:28;;;;;;;;;6.00;6.00;;;;;;;;5119544;27;45753;-67
2023/08/29 02:36:53;;;;;;;;;5.00;4.00;;;;;;;;5118477;27;45729;-66
2023/08/29 02:39:19;;;;;;;;;5.00;3.33;;;;;;;;5122882;27;45795;-66
2023/08/29 02:41:44;;;;;;;;;5.67;4.67;;;;;;;;5122855;27;45705;-65
2023/08/29 02:44:09;;;;;;;;;4.67;4.67;;;;;;;;5129156;27;45574;-65
2023/08/29 02:46:35;;;;;;;;;4.67;4.67;;;;;;;;5122911;27;46058;-65
2023/08/29 02:49:00;;;;;;;;;5.00;5.00;;;;;;;;5132292;27;45698;-66
2023/08/29 02:51:25;;;;;;;;;6.00;6.00;;;;;;;;5122890;27;45843;-67
2023/08/29 02:53:54;;;;;;;;;5.67;5.00;;;;;;;;5120296;27;45437;-67
2023/08/29 02:56:19;;;;;;;;;5.67;5.33;;;;;;;;5129360;27;46169;-66
2023/08/29 02:58:44;;;;;;;;;6.33;5.00;;;;;;;;5130686;27;45839;-68
2023/08/29 03:01:11;;;;;;;;;5.00;5.00;;;;;;;;5129376;27;46252;-65
2023/08/29 03:03:37;;;;;;;;;10.00;7.33;;;;;;;;5133184;27;45859;-66
2023/08/29 03:06:02;;;;;;;;;4.00;4.00;;;;;;;;5103093;27;46134;-66
2023/08/29 03:08:27;;;;;;;;;9.67;5.00;;;;;;;;5128939;27;45701;-65
2023/08/29 03:10:53;;;;;;;;;8.33;6.33;;;;;;;;5122902;27;45669;-66
2023/08/29 03:13:18;;;;;;;;;4.33;4.33;;;;;;;;5120372;27;46029;-66
2023/08/29 03:15:46;;;;;;;;;5.33;4.00;;;;;;;;5130295;27;46256;-65
2023/08/29 03:18:11;;;;;;;;;9.33;8.33;;;;;;;;5126990;27;45683;-66
2023/08/29 03:20:40;;;;;;;;;6.00;5.00;;;;;;;;5126234;27;45378;-66
2023/08/29 03:23:05;;;;;;;;;6.67;6.67;;;;;;;;5106596;27;45736;-66
2023/08/29 03:25:30;;;;;;;;;7.00;7.00;;;;;;;;5108854;27;45457;-67
2023/08/29 03:27:55;;;;;;;;;11.67;8.67;;;;;;;;5111211;27;45395;-66
2023/08/29 03:30:21;;;;;;;;;12.33;10.33;;;;;;;;5128040;27;45331;-67
2023/08/29 03:32:49;;;;;;;;;17.33;15.33;;;;;;;;5130201;27;45524;-65
2023/08/29 03:35:14;;;;;;;;;9.67;8.67;;;;;;;;5126889;27;46144;-66
2023/08/29 03:37:40;;;;;;;;;8.67;8.33;;;;;;;;5130591;27;45653;-65
2023/08/29 03:40:05;;;;;;;;;13.33;8.67;;;;;;;;5128339;27;45831;-67
2023/08/29 03:42:31;;;;;;;;;8.00;8.00;;;;;;;;5128133;27;45811;-65
2023/08/29 03:44:56;;;;;;;;;8.67;7.00;;;;;;;;5123729;27;46264;-66
2023/08/29 03:47:21;;;;;;;;;7.33;7.33;;;;;;;;5130812;27;45923;-66
2023/08/29 03:49:46;;;;;;;;;7.33;6.00;;;;;;;;5111762;27;45302;-66
2023/08/29 03:52:19;;;;;;;;;6.67;6.67;;;;;;;;5122871;27;45554;-66
2023/08/29 03:54:44;;;;;;;;;6.67;4.67;;;;;;;;5132062;27;47189;-67
2023/08/29 03:57:10;;;;;;;;;9.00;6.33;;;;;;;;5123916;27;45327;-66
2023/08/29 03:59:35;;;;;;;;;7.00;7.00;;;;;;;;5110339;27;45352;-67
2023/08/29 04:02:05;;;;;;;;;5.67;5.67;;;;;;;;5122494;27;45338;-66
2023/08/29 04:04:31;;;;;;;;;7.33;6.00;;;;;;;;5125642;27;45446;-64
2023/08/29 04:06:56;;;;;;;;;5.33;5.33;;;;;;;;5112369;27;45373;-65
2023/08/29 04:09:21;;;;;;;;;6.33;5.67;;;;;;;;5121919;27;45524;-67
2023/08/29 04:11:47;;;;;;;;;5.67;5.67;;;;;;;;5127875;27;45724;-66
2023/08/29 04:14:12;;;;;;;;;6.00;6.00;;;;;;;;5126206;27;45970;-66
2023/08/29 04:16:37;;;;;;;;;6.67;6.00;;;;;;;;5128718;27;45517;-67
2023/08/29 04:19:02;;;;;;;;;4.67;4.67;;;;;;;;5114087;27;45385;-66
2023/08/29 04:21:27;;;;;;;;;8.00;5.33;;;;;;;;5107403;27;45849;-65
2023/08/29 04:23:53;;;;;;;;;8.00;7.33;;;;;;;;5114499;27;46000;-65
2023/08/29 04:26:18;;;;;;;;;8.00;5.00;;;;;;;;5129628;27;45719;-66
2023/08/29 04:28:43;;;;;;;;;6.67;4.67;;;;;;;;5126319;27;45629;-66
2023/08/29 04:31:09;;;;;;;;;6.00;6.00;;;;;;;;5118432;27;45518;-66
2023/08/29 04:33:34;;;;;;;;;6.67;5.33;;;;;;;;5107437;27;46946;-67
2023/08/29 04:36:00;;;;;;;;;8.00;7.67;;;;;;;;5128926;27;45839;-66
2023/08/29 04:38:25;;;;;;;;;6.00;6.00;;;;;;;;5130618;27;45687;-65
2023/08/29 04:40:53;;;;;;;;;10.33;9.00;;;;;;;;5124373;27;45692;-66
2023/08/29 04:43:19;;;;;;;;;7.33;7.33;;;;;;;;5125369;27;45757;-65
2023/08/29 04:45:44;;;;;;;;;7.33;7.33;;;;;;;;5101565;27;46100;-64
2023/08/29 04:48:10;;;;;;;;;10.67;6.00;;;;;;;;5115304;27;45731;-66
2023/08/29 04:50:35;;;;;;;;;9.33;7.33;;;;;;;;5122483;27;45636;-67
2023/08/29 04:53:00;;;;;;;;;7.00;6.00;;;;;;;;5125331;27;46264;-65
2023/08/29 04:55:26;;;;;;;;;7.33;7.33;;;;;;;;5128256;27;45697;-65
2023/08/29 04:57:54;;;;;;;;;4.67;4.00;;;;;;;;5108178;27;45821;-66
2023/08/29 05:00:19;;;;;;;;;11.67;8.00;;;;;;;;5107159;27;45737;-67
2023/08/29 05:02:45;;;;;;;;;7.33;7.33;;;;;;;;5124415;27;45768;-68
2023/08/29 05:05:10;;;;;;;;;9.00;6.67;;;;;;;;5122191;27;45703;-67
2023/08/29 05:07:35;;;;;;;;;6.33;6.33;;;;;;;;5090086;27;45495;-67
2023/08/29 05:10:00;;;;;;;;;8.00;7.33;;;;;;;;5105486;27;47304;-66
2023/08/29 05:12:26;;;;;;;;;11.67;8.33;;;;;;;;5124364;27;46555;-66
2023/08/29 05:14:53;;;;;;;;;8.33;7.67;;;;;;;;5122440;27;45603;-66
2023/08/29 05:17:18;;;;;;;;;8.67;7.67;;;;;;;;5123581;27;45395;-68
2023/08/29 05:19:44;;;;;;;;;8.67;8.67;;;;;;;;5108850;27;45797;-66
2023/08/29 05:22:09;;;;;;;;;12.00;11.00;;;;;;;;5125813;27;45583;-67
2023/08/29 05:24:34;;;;;;;;;16.00;8.33;;;;;;;;5127197;27;45786;-66
2023/08/29 05:27:00;;;;;;;;;8.33;8.33;;;;;;;;5128406;27;45538;-66
2023/08/29 05:29:25;;;;;;;;;12.33;10.33;;;;;;;;5129539;27;46596;-66
2023/08/29 05:31:50;;;;;;;;;8.00;8.00;;;;;;;;5110140;27;47230;-65
2023/08/29 05:34:15;;;;;;;;;7.00;7.00;;;;;;;;5118958;27;45767;-66
2023/08/29 05:36:41;;;;;;;;;10.00;8.67;;;;;;;;5121240;27;45780;-65
2023/08/29 05:39:06;;;;;;;;;11.00;9.33;;;;;;;;5122321;27;45463;-67
2023/08/29 05:41:31;;;;;;;;;8.67;7.00;;;;;;;;5125328;27;45672;-66
2023/08/29 05:43:56;;;;;;;;;10.67;7.00;;;;;;;;5123289;27;45650;-65
2023/08/29 05:46:22;;;;;;;;;11.00;8.33;;;;;;;;5131923;27;45645;-66
2023/08/29 05:48:47;;;;;;;;;7.67;6.67;;;;;;;;5121537;27;45443;-66
2023/08/29 05:51:12;;;;;;;;;5.33;5.33;;;;;;;;5104388;27;47328;-66
2023/08/29 05:53:37;;;;;;;;;7.33;7.00;;;;;;;;5127195;27;45363;-65
2023/08/29 05:56:03;;;;;;;;;9.67;6.67;;;;;;;;5128529;27;45954;-65
2023/08/29 05:58:28;;;;;;;;;8.00;8.00;;;;;;;;5128972;27;45489;-67
2023/08/29 06:00:55;;;;;;;;;11.00;9.67;;;;;;;;5131389;27;46109;-66
2023/08/29 06:03:20;;;;;;;;;9.00;7.67;;;;;;;;5132899;27;45390;-66
2023/08/29 06:05:48;;;;;;;;;8.00;6.75;;;;;;;;5124472;27;45500;-65
2023/08/29 06:08:14;;;;;;;;;12.50;7.25;;;;;;;;5127310;27;46295;-65
2023/08/29 06:10:39;;;;;;;;;8.00;8.00;;;;;;;;5125754;27;47051;-65
2023/08/29 06:13:04;;;;;;;;;10.25;7.25;;;;;;;;5123844;27;45732;-66
2023/08/29 06:15:30;;;;;;;;;6.75;6.75;;;;;;;;5127951;27;45882;-67
2023/08/29 06:17:55;;;;;;;;;8.00;6.75;;;;;;;;5129575;27;45840;-69
2023/08/29 06:20:20;;;;;;;;;9.00;5.75;;;;;;;;5107268;27;48441;-67
2023/08/29 06:22:45;;;;;;;;;11.75;9.25;;;;;;;;5123587;27;45888;-70
2023/08/29 06:25:11;;;;;;;;;9.25;8.75;;;;;;;;5108115;27;46430;-75
2023/08/29 06:27:36;;;;;;;;;10.75;8.75;;;;;;;;5119128;27;46148;-70
2023/08/29 06:30:02;;;;;;;;;9.50;8.50;;;;;;;;5124315;27;46387;-69
2023/08/29 06:32:28;;;;;;;;;9.25;8.50;;;;;;;;5109751;27;46898;-68
2023/08/29 06:34:53;;;;;;;;;10.00;8.75;;;;;;;;5113786;27;45466;-69
2023/08/29 06:37:19;;;;;;;;;6.25;6.25;;;;;;;;5117041;27;45450;-65
2023/08/29 06:39:47;;;;;;;;;11.00;10.25;;;;;;;;5130398;27;46500;-67
2023/08/29 06:42:13;;;;;;;;;12.00;7.75;;;;;;;;5131682;27;45358;-68
2023/08/29 06:44:38;;;;;;;;;7.00;5.75;;;;;;;;5134719;27;45344;-66
2023/08/29 06:47:04;;;;;;;;;11.75;9.50;;;;;;;;5114479;27;45733;-67
2023/08/29 06:49:30;;;;;;;;;10.50;9.50;;;;;;;;5115494;27;48194;-68
2023/08/29 06:51:55;;;;;;;;;10.50;8.50;;;;;;;;5111856;27;45496;-67
2023/08/29 06:54:20;;;;;;;;;8.50;8.50;;;;;;;;5132268;27;45868;-67
2023/08/29 06:56:45;;;;;;;;;8.50;8.50;;;;;;;;5132258;27;45482;-68
2023/08/29 06:59:11;;;;;;;;;11.00;9.25;;;;;;;;5133279;27;45793;-66
2023/08/29 07:01:37;;;;;;;;;12.75;10.50;;;;;;;;5127266;27;45435;-68
2023/08/29 07:04:02;;;;;;;;;8.50;7.75;;;;;;;;5134355;27;45817;-66
2023/08/29 07:06:28;;;;;;;;;10.25;10.25;;;;;;;;5128468;27;45461;-68
2023/08/29 07:08:53;;;;;;;;;7.50;6.25;;;;;;;;5102547;27;47812;-66
2023/08/29 07:11:19;;;;;;;;;10.75;8.25;;;;;;;;5109981;27;45702;-67
2023/08/29 07:13:44;;;;;;;;;8.00;7.00;;;;;;;;5107112;27;45562;-68
2023/08/29 07:16:09;;;;;;;;;8.25;7.00;;;;;;;;5119947;27;45427;-67
2023/08/29 07:18:35;;;;;;;;;9.50;7.50;;;;;;;;5130385;27;46229;-68
2023/08/29 07:21:01;;;;;;;;;7.00;5.25;;;;;;;;5134293;27;45371;-67
2023/08/29 07:23:26;;;;;;;;;9.50;7.75;;;;;;;;5122227;27;45710;-68
2023/08/29 07:25:52;;;;;;;;;8.00;7.25;;;;;;;;5127951;27;45974;-66
2023/08/29 07:28:17;;;;;;;;;9.25;8.00;;;;;;;;5131510;27;45489;-68
2023/08/29 07:30:44;;;;;;;;;6.75;5.25;;;;;;;;5129342;27;45761;-68
2023/08/29 07:33:11;;;;;;;;;8.00;8.00;;;;;;;;5121787;27;45940;-67
2023/08/29 07:35:37;;;;;;;;;6.75;6.25;;;;;;;;5121634;27;45795;-67
2023/08/29 07:38:02;;;;;;;;;6.25;6.25;;;;;;;;5124834;27;45692;-67
2023/08/29 07:40:27;;;;;;;;;9.25;6.75;;;;;;;;5124605;27;45809;-67
2023/08/29 07:42:53;;;;;;;;;6.00;6.00;;;;;;;;5108175;27;45828;-68
2023/08/29 07:45:18;;;;;;;;;7.25;7.00;;;;;;;;5125682;27;45437;-69
2023/08/29 07:47:43;;;;;;;;;7.00;6.00;;;;;;;;5132469;27;46177;-67
2023/08/29 07:50:08;;;;;;;;;8.00;6.00;;;;;;;;5125469;27;45783;-68
2023/08/29 07:52:34;;;;;;;;;12.50;6.75;;;;;;;;5129422;27;45726;-66
2023/08/29 07:54:59;;;;;;;;;6.50;4.50;;;;;;;;5107632;27;46155;-67
2023/08/29 07:57:25;;;;;;;;;7.75;7.75;;;;;;;;5127144;27;46683;-67
2023/08/29 07:59:50;;;;;;;;;6.50;4.50;;;;;;;;5122736;27;45365;-68
2023/08/29 08:02:15;;;;;;;;;5.75;5.75;;;;;;;;5128198;27;45411;-68
2023/08/29 08:04:40;;;;;;;;;8.00;8.00;;;;;;;;5124225;27;45501;-67
2023/08/29 08:07:06;;;;;;;;;6.75;5.50;;;;;;;;5123145;27;45571;-67
2023/08/29 08:09:31;;;;;;;;;8.25;6.75;;;;;;;;5119345;27;45591;-66
2023/08/29 08:11:56;;;;;;;;;8.00;8.00;;;;;;;;5119212;27;45738;-70
2023/08/29 08:14:22;;;;;;;;;6.50;6.00;;;;;;;;5119135;27;47026;-68
2023/08/29 08:16:47;;;;;;;;;7.25;5.25;;;;;;;;5123483;27;45513;-68
2023/08/29 08:19:12;;;;;;;;;8.50;5.25;;;;;;;;5122823;27;45463;-67
2023/08/29 08:21:38;;;;;;;;;10.00;8.25;;;;;;;;5119113;27;45612;-67
2023/08/29 08:24:03;;;;;;;;;10.25;7.00;;;;;;;;5120067;27;45856;-67
2023/08/29 08:26:28;;;;;;;;;7.50;7.00;;;;;;;;5125835;27;45687;-68
2023/08/29 08:28:54;;;;;;;;;6.25;6.25;;;;;;;;5124731;27;45290;-66
2023/08/29 08:31:20;;;;;;;;;6.50;6.00;;;;;;;;5126623;27;46080;-69
2023/08/29 08:33:45;;;;;;;;;7.00;6.00;;;;;;;;5108303;27;45800;-66
2023/08/29 08:36:10;;;;;;;;;7.00;7.00;;;;;;;;5108136;27;47418;-68
2023/08/29 08:38:36;;;;;;;;;5.75;5.75;;;;;;;;5125892;27;45807;-69
2023/08/29 08:41:01;;;;;;;;;10.50;7.75;;;;;;;;5126494;27;45618;-65
2023/08/29 08:43:29;;;;;;;;;7.75;7.75;;;;;;;;5119629;27;45505;-67
2023/08/29 08:45:54;;;;;;;;;7.25;5.50;;;;;;;;5103728;27;48066;-66
2023/08/29 08:48:20;;;;;;;;;9.00;7.00;;;;;;;;5126255;27;45388;-67
2023/08/29 08:50:46;;;;;;;;;7.00;6.00;;;;;;;;5129925;27;45449;-68
2023/08/29 08:53:11;;;;;;;;;24.25;19.75;;;;;;;;5126835;27;45811;-67
2023/08/29 08:55:37;;;;;;;;;7.00;6.50;;;;;;;;5105217;27;46067;-67
2023/08/29 08:58:02;;;;;;;;;7.00;4.50;;;;;;;;5121145;27;45511;-68
2023/08/29 09:00:28;;;;;;;;;5.25;4.50;;;;;;;;5120755;27;45899;-66
2023/08/29 09:02:53;;;;;;;;;4.75;4.75;;;;;;;;5119158;27;45534;-66
2023/08/29 09:05:20;;;;;;;;;1.75;1.75;;;;;;;;5121761;27;45446;-68
2023/08/29 09:07:45;;;;;;;;;3.50;2.50;;;;;;;;5105666;27;45457;-68
2023/08/29 09:10:12;;;;;;;;;5.00;3.50;;;;;;;;5112430;27;45811;-68
2023/08/29 09:12:50;;;;;;;;;7.75;6.00;;;;;;;;5114818;27;45608;-67
2023/08/29 09:15:16;;;;;;;;;4.50;4.00;;;;;;;;5115429;27;46311;-67
2023/08/29 09:17:49;;;;;;;;;13.00;11.00;;;;;;;;5123774;27;46969;-67
2023/08/29 09:20:14;;;;;;;;;2.25;2.00;;;;;;;;5124904;27;45565;-67
2023/08/29 09:22:43;;;;;;;;;7.00;6.00;;;;;;;;5124333;27;45721;-69
2023/08/29 09:25:09;;;;;;;;;7.00;7.00;;;;;;;;5129848;27;45805;-67
2023/08/29 09:27:42;;;;;;;;;5.25;4.00;;;;;;;;5129040;27;45424;-66
2023/08/29 09:30:17;;;;;;;;;2.50;2.50;;;;;;;;5105189;27;45946;-69
2023/08/29 09:32:46;;;;;;;;;2.00;2.00;;;;;;;;5127055;27;46203;-67
2023/08/29 09:35:15;;;;;;;;;0.75;0.75;;;;;;;;5111032;27;46681;-69
2023/08/29 09:37:46;;;;;;;;;3.00;3.00;;;;;;;;5120832;27;47140;-69
2023/08/29 09:40:15;;;;;;;;;6.75;5.75;;;;;;;;5125367;27;45458;-67
2023/08/29 09:42:40;;;;;;;;;6.25;2.00;;;;;;;;5124809;27;45441;-67
2023/08/29 09:45:09;;;;;;;;;4.00;2.00;;;;;;;;5128694;27;45572;-68
2023/08/29 09:47:35;;;;;;;;;9.25;7.25;;;;;;;;5110454;27;45847;-67
2023/08/29 09:50:00;;;;;;;;;6.75;4.00;;;;;;;;5114604;27;45686;-67
2023/08/29 09:52:25;;;;;;;;;4.00;4.00;;;;;;;;5134751;27;45457;-68
2023/08/29 09:54:52;;;;;;;;;2.50;1.75;;;;;;;;5128396;27;47169;-68
2023/08/29 09:57:19;;;;;;;;;3.00;3.00;;;;;;;;5133695;27;45609;-69
2023/08/29 09:59:45;;;;;;;;;4.00;3.00;;;;;;;;5135783;27;45705;-67
2023/08/29 10:02:11;;;;;;;;;31.00;30.00;;;;;;;;5127301;27;45554;-66
2023/08/29 10:04:46;;;;;;;;;5.00;4.00;;;;;;;;5132435;27;45971;-69
2023/08/29 10:07:15;;;;;;;;;3.00;3.00;;;;;;;;5127970;27;45808;-66
2023/08/29 10:09:41;;;;;;;;;2.00;1.00;;;;;;;;5131520;27;45991;-69
2023/08/29 10:12:07;;;;;;;;;1.00;1.00;;;;;;;;5113198;27;45716;-70
2023/08/29 10:14:33;;;;;;;;;3.00;3.00;;;;;;;;5108423;27;46777;-68
2023/08/29 10:16:59;;;;;;;;;2.50;2.50;;;;;;;;5124613;27;46001;-68
2023/08/29 10:19:26;;;;;;;;;4.00;3.00;;;;;;;;5123899;27;45312;-68
2023/08/29 10:21:53;;;;;;;;;4.25;3.00;;;;;;;;5120111;27;45518;-68
2023/08/29 10:24:19;;;;;;;;;2.00;2.00;;;;;;;;5126216;27;45833;-67
2023/08/29 10:26:45;;;;;;;;;1.00;1.00;;;;;;;;5132491;27;45446;-67
2023/08/29 10:29:10;;;;;;;;;2.50;1.00;;;;;;;;5109665;27;45834;-67
2023/08/29 10:31:36;;;;;;;;;2.00;1.00;;;;;;;;5127958;27;45513;-66
2023/08/29 10:34:03;;;;;;;;;3.00;2.50;;;;;;;;5129252;27;45795;-71
2023/08/29 10:36:28;;;;;;;;;4.20;3.60;;;;;;;;5126310;27;45494;-66
2023/08/29 10:38:55;;;;;;;;;2.75;2.75;;;;;;;;5121735;27;45751;-67
2023/08/29 10:41:21;;;;;;;;;2.50;2.50;;;;;;;;5123454;27;45848;-68
2023/08/29 10:43:46;;;;;;;;;5.00;3.00;;;;;;;;5130243;27;45899;-68
2023/08/29 10:46:13;;;;;;;;;3.00;3.00;;;;;;;;5125715;27;45682;-67
2023/08/29 10:48:39;;;;;;;;;2.50;2.00;;;;;;;;5114273;27;45737;-66
2023/08/29 10:51:07;;;;;;;;;4.75;3.75;;;;;;;;5129408;27;45742;-67
2023/08/29 10:53:35;;;;;;;;;4.00;3.00;;;;;;;;5114438;27;47161;-65
2023/08/29 10:56:03;;;;;;;;;2.20;2.20;;;;;;;;5126292;27;45867;-67
2023/08/29 10:58:36;;;;;;;;;4.00;4.00;;;;;;;;5120366;27;45687;-67
2023/08/29 11:01:02;;;;;;;;;4.50;3.50;;;;;;;;5122195;27;46114;-66
2023/08/29 11:03:39;;;;;;;;;3.00;3.00;;;;;;;;5128344;27;46116;-66
2023/08/29 11:06:04;;;;;;;;;3.75;3.75;;;;;;;;5123558;27;45470;-66
2023/08/29 11:08:30;;;;;;;;;5.00;4.50;;;;;;;;5109033;27;45528;-67
2023/08/29 11:11:13;;;;;;;;;7.25;5.00;;;;;;;;5130132;27;45684;-67
2023/08/29 11:13:57;;;;;;;;;4.75;4.25;;;;;;;;5108551;27;46394;-69
2023/08/29 11:16:22;;;;;;;;;3.00;3.00;;;;;;;;5127933;27;45473;-68
2023/08/29 11:18:57;;;;;;;;;4.00;2.25;;;;;;;;5134309;27;46072;-69
2023/08/29 11:21:23;;;;;;;;;5.00;5.00;;;;;;;;5124232;27;45482;-67
2023/08/29 11:23:49;;;;;;;;;5.25;4.25;;;;;;;;5133014;27;45634;-68
2023/08/29 11:26:14;;;;;;;;;3.50;2.50;;;;;;;;5133694;27;45336;-67
2023/08/29 11:28:45;;;;;;;;;3.75;3.00;;;;;;;;5131499;27;45830;-66
2023/08/29 11:31:12;;;;;;;;;3.00;2.75;;;;;;;;5128708;27;45388;-68
2023/08/29 11:33:38;;;;;;;;;5.00;5.00;;;;;;;;5121077;27;45761;-66
2023/08/29 11:36:04;;;;;;;;;4.75;4.25;;;;;;;;5129444;27;46016;-68
2023/08/29 11:38:30;;;;;;;;;6.00;3.00;;;;;;;;5129895;27;45720;-67
2023/08/29 11:40:57;;;;;;;;;7.00;4.00;;;;;;;;5126421;27;45850;-67
2023/08/29 11:43:23;;;;;;;;;5.00;4.00;;;;;;;;5132552;27;46057;-70
2023/08/29 11:45:49;;;;;;;;;3.80;3.40;;;;;;;;5132313;27;45656;-68
2023/08/29 11:48:20;;;;;;;;;3.00;3.00;;;;;;;;5128834;27;45476;-69
2023/08/29 11:50:45;;;;;;;;;6.00;5.00;;;;;;;;5129626;27;45871;-68
2023/08/29 11:53:11;;;;;;;;;7.00;5.00;;;;;;;;5132122;27;45682;-69
2023/08/29 11:55:37;;;;;;;;;5.00;5.00;;;;;;;;5112606;27;45971;-67
2023/08/29 11:58:03;;;;;;;;;3.25;3.00;;;;;;;;5107248;27;45752;-68
2023/08/29 12:00:30;;;;;;;;;4.75;3.75;;;;;;;;5112900;27;45620;-70
2023/08/29 12:02:56;;;;;;;;;5.00;3.75;;;;;;;;5120620;27;46216;-69
2023/08/29 12:05:21;;;;;;;;;5.50;5.25;;;;;;;;5132137;27;45851;-68
2023/08/29 12:07:51;;;;;;;;;6.00;4.50;;;;;;;;5132693;27;45410;-68
2023/08/29 12:10:16;;;;;;;;;4.25;3.25;;;;;;;;5130603;27;45962;-68
2023/08/29 12:12:42;;;;;;;;;4.00;3.00;;;;;;;;5127072;27;45906;-68
2023/08/29 12:15:11;;;;;;;;;4.50;4.50;;;;;;;;5129782;27;45721;-68
2023/08/29 12:17:41;;;;;;;;;3.00;3.00;;;;;;;;5126903;27;45772;-69
2023/08/29 12:20:26;;;;;;;;;4.25;3.25;;;;;;;;5115821;27;45572;-70
2023/08/29 12:22:52;;;;;;;;;3.50;2.25;;;;;;;;5130809;27;45718;-68
2023/08/29 12:25:18;;;;;;;;;2.75;2.75;;;;;;;;5112914;27;45561;-69
2023/08/29 12:27:44;;;;;;;;;4.75;4.00;;;;;;;;5118606;27;45787;-67
2023/08/29 12:30:13;;;;;;;;;3.00;3.00;;;;;;;;5115701;27;45491;-68
2023/08/29 12:32:38;;;;;;;;;3.00;3.00;;;;;;;;5122683;27;46078;-66
2023/08/29 12:35:04;;;;;;;;;5.25;3.00;;;;;;;;5128119;27;45413;-67
2023/08/29 12:37:29;;;;;;;;;5.00;3.00;;;;;;;;5128029;27;45620;-69
2023/08/29 12:39:54;;;;;;;;;3.25;3.25;;;;;;;;5125158;27;45761;-67
2023/08/29 12:42:20;;;;;;;;;5.00;4.25;;;;;;;;5110965;27;48009;-68
2023/08/29 12:44:45;;;;;;;;;3.00;3.00;;;;;;;;5117770;27;45393;-69
2023/08/29 12:47:10;;;;;;;;;4.00;4.00;;;;;;;;5117797;27;45495;-67
2023/08/29 12:49:35;;;;;;;;;3.00;3.00;;;;;;;;5126987;27;45526;-69
2023/08/29 12:52:01;;;;;;;;;4.00;4.00;;;;;;;;5126923;27;46419;-69
2023/08/29 12:54:28;;;;;;;;;4.25;3.50;;;;;;;;5102773;27;45753;-67
2023/08/29 12:56:53;;;;;;;;;2.75;2.75;;;;;;;;5126576;27;45427;-68
2023/08/29 12:59:18;;;;;;;;;4.00;3.75;;;;;;;;5118685;27;45791;-68
2023/08/29 13:01:44;;;;;;;;;3.00;3.00;;;;;;;;5130557;27;45687;-70
2023/08/29 13:04:09;;;;;;;;;4.00;4.00;;;;;;;;5112817;27;45731;-69
2023/08/29 13:06:34;;;;;;;;;3.00;3.00;;;;;;;;5127573;27;45634;-69
2023/08/29 13:08:59;;;;;;;;;3.75;3.25;;;;;;;;5134189;27;45694;-67
2023/08/29 13:11:25;;;;;;;;;3.00;3.00;;;;;;;;5133751;27;45385;-70
2023/08/29 13:13:50;;;;;;;;;1.25;1.25;;;;;;;;5115305;27;45327;-68
2023/08/29 13:16:16;;;;;;;;;1.75;1.75;;;;;;;;5133470;27;45296;-67
2023/08/29 13:18:42;;;;;;;;;2.50;1.25;;;;;;;;5133685;27;45678;-68
2023/08/29 13:21:07;;;;;;;;;3.00;2.50;;;;;;;;5133012;27;45472;-68
2023/08/29 13:23:32;;;;;;;;;4.75;3.00;;;;;;;;5114615;27;45301;-68
2023/08/29 13:25:58;;;;;;;;;4.00;4.00;;;;;;;;5133909;27;45677;-69
2023/08/29 13:28:23;;;;;;;;;3.25;2.25;;;;;;;;5134039;27;45436;-69
2023/08/29 13:30:48;;;;;;;;;3.25;3.25;;;;;;;;5133160;27;45440;-68
2023/08/29 13:33:13;;;;;;;;;3.50;3.50;;;;;;;;5123147;27;45694;-68
2023/08/29 13:35:39;;;;;;;;;3.00;3.00;;;;;;;;5130067;27;45672;-68
2023/08/29 13:38:05;;;;;;;;;4.00;2.75;;;;;;;;5133685;27;45677;-68
2023/08/29 13:40:30;;;;;;;;;4.00;2.75;;;;;;;;5132891;27;46570;-68
2023/08/29 13:42:55;;;;;;;;;1.75;1.75;;;;;;;;5131910;27;45578;-68
2023/08/29 13:45:21;;;;;;;;;3.00;1.00;;;;;;;;5113492;27;45605;-69
2023/08/29 13:47:46;;;;;;;;;2.25;2.25;;;;;;;;5114626;27;46940;-69
2023/08/29 13:50:11;;;;;;;;;1.75;1.75;;;;;;;;5133016;27;45912;-68
2023/08/29 13:52:37;;;;;;;;;3.00;3.00;;;;;;;;5114895;27;45739;-69
2023/08/29 13:55:02;;;;;;;;;2.75;2.75;;;;;;;;5133381;27;45753;-67
2023/08/29 13:57:28;;;;;;;;;2.75;2.75;;;;;;;;5132830;27;45426;-69
2023/08/29 13:59:53;;;;;;;;;3.50;2.50;;;;;;;;5133193;27;45505;-69
2023/08/29 14:02:18;;;;;;;;;2.50;1.00;;;;;;;;5131783;27;46881;-69
2023/08/29 14:04:43;;;;;;;;;2.75;2.00;;;;;;;;5129871;27;45708;-69
2023/08/29 14:07:09;;;;;;;;;2.50;2.50;;;;;;;;5131015;27;45763;-68
2023/08/29 14:09:34;;;;;;;;;1.75;1.75;;;;;;;;5119862;27;46492;-69
2023/08/29 14:11:59;;;;;;;;;1.00;1.00;;;;;;;;5111028;27;45671;-69
2023/08/29 14:14:24;;;;;;;;;2.25;2.25;;;;;;;;5128164;27;45709;-70
2023/08/29 14:16:50;;;;;;;;;3.00;3.00;;;;;;;;5126106;27;47150;-69
2023/08/29 14:19:18;;;;;;;;;2.00;2.00;;;;;;;;5100436;27;47032;-70
2023/08/29 14:21:43;;;;;;;;;2.00;1.00;;;;;;;;5124030;27;45633;-70
2023/08/29 14:24:09;;;;;;;;;2.75;2.75;;;;;;;;5121803;27;46624;-71
2023/08/29 14:26:34;;;;;;;;;3.00;3.00;;;;;;;;5131633;27;45482;-70
2023/08/29 14:28:59;;;;;;;;;4.00;2.00;;;;;;;;5132286;27;45386;-70
2023/08/29 14:31:24;;;;;;;;;3.00;2.00;;;;;;;;5122326;27;45454;-69
2023/08/29 14:33:50;;;;;;;;;2.00;1.50;;;;;;;;5104258;27;45666;-69